NCAR-RAP Real-Time Weather Data

Output produced by METARs form (08 May 2021  16:16 UTC)
found at http://weather.rap.ucar.edu/surface/
 
KMBS 081553Z 29008KT 10SM FEW043 11/M01 A3008 RMK AO2 SLP189 T01061006
KMBS 081453Z 32010KT 10SM CLR 09/00 A3008 RMK AO2 SLP188 T00940000 50005
KMBS 081353Z 31011KT 10SM CLR 08/00 A3008 RMK AO2 SLP189 T00780000
KMBS 081253Z 32011KT 10SM CLR 06/M01 A3007 RMK AO2 SLP187 T00561006
KMBS 081153Z 32012KT 10SM CLR 03/M01 A3006 RMK AO2 SLP184 70014 T00281006 10044 20011 53012
KMBS 081053Z 31008KT 10SM CLR 02/M01 A3004 RMK AO2 SLP178 T00171011
KMBS 080953Z AUTO 32009KT 10SM CLR 02/M01 A3003 RMK AO2 SLP174 T00171011
KMBS 080853Z AUTO 30011KT 10SM CLR 02/00 A3002 RMK AO2 SLP172 T00220000 53005
KMBS 080753Z AUTO 31008KT 10SM BKN060 03/01 A3002 RMK AO2 SLP169 T00330006
KMBS 080653Z AUTO 32008KT 10SM OVC055 04/01 A3001 RMK AO2 SLP167 T00440011
KMBS 080553Z AUTO 34008KT 10SM OVC034 04/01 A3001 RMK AO2 SLP165 60000 T00440011 10078 20044 53003
KMBS 080536Z AUTO 35011KT 10SM OVC033 04/01 A3001 RMK AO2 T00440011
KMBS 080512Z AUTO 35011KT 10SM OVC029 05/02 A3000 RMK AO2 T00500017
KMBS 080453Z AUTO 35011KT 10SM SCT018 SCT024 OVC034 04/02 A3000 RMK AO2 RAB30E49 SLP163 P0000 T00440017 401220011
KMBS 080353Z AUTO 33010KT 10SM OVC023 06/01 A3000 RMK AO2 SLP162 T00560011
KMBS 080331Z AUTO 34010KT 10SM BKN025 OVC048 05/01 A3000 RMK AO2 T00500011
KMBS 080324Z AUTO 34010KT 10SM SCT025 BKN033 OVC048 05/01 A3000 RMK AO2 T00500011
KMBS 080253Z AUTO 32009KT 10SM SCT023 OVC029 06/01 A3000 RMK AO2 SLP162 T00560011 51021
KMBS 080241Z AUTO 32008KT 10SM BKN025 OVC035 06/01 A3000 RMK AO2 T00560011
KMBS 080203Z AUTO 34009KT 10SM SCT027 OVC033 06/01 A2999 RMK AO2 T00560006
KMBS 080153Z AUTO 35010KT 10SM BKN026 OVC032 06/01 A2998 RMK AO2 SLP157 T00560011
KMBS 080106Z AUTO 34018KT 10SM BKN025 06/01 A2996 RMK AO2 T00560006
KMBS 080053Z AUTO 34016KT 10SM SCT027 SCT033 06/01 A2995 RMK AO2 SLP148 T00560006